Time;durP1;ratioP1;P1;durP2;ratioP2;P2;SDS_P1;SDS_P2;PMS_P1;PMS_P2;Temp;Humidity;BMP_temperature;BMP_pressure;BME280_temperature;BME280_humidity;BME280_pressure;Samples;Min_cycle;Max_cycle;Signal;HPM_P1;HPM_P2
2023/05/04 00:01:54;;;;;;;0.50;0.50;;;;;;;5.33;70.90;101332.56;10648489;28;20038;-72
2023/05/04 00:06:56;;;;;;;0.73;0.52;;;;;;;5.26;71.49;101333.72;10614243;28;20038;-72
2023/05/04 00:11:58;;;;;;;0.52;0.50;;;;;;;5.30;71.41;101327.59;10630925;28;20504;-73
2023/05/04 00:17:02;;;;;;;0.80;0.63;;;;;;;5.34;72.07;101319.78;10630966;28;20039;-72
2023/05/04 00:22:09;;;;;;;0.85;0.57;;;;;;;5.44;72.02;101325.53;10645095;28;20177;-73
2023/05/04 00:27:11;;;;;;;1.03;0.70;;;;;;;5.51;71.88;101323.53;10629844;28;20051;-73
2023/05/04 00:32:13;;;;;;;1.83;0.50;;;;;;;5.49;71.63;101320.22;10648392;28;20042;-72
2023/05/04 00:37:16;;;;;;;0.65;0.60;;;;;;;5.65;71.62;101311.41;10648525;28;20047;-72
2023/05/04 00:42:19;;;;;;;4.75;1.20;;;;;;;5.78;71.11;101312.28;10649136;28;20047;-72
2023/05/04 00:47:21;;;;;;;1.77;0.65;;;;;;;5.52;71.88;101308.84;10644008;28;20039;-73
2023/05/04 00:52:25;;;;;;;1.45;1.08;;;;;;;5.21;72.52;101304.50;10606827;28;20047;-73
2023/05/04 00:57:28;;;;;;;1.45;0.82;;;;;;;5.27;73.33;101311.72;10610267;28;20042;-73
2023/05/04 01:02:30;;;;;;;1.60;0.90;;;;;;;5.31;73.48;101318.38;10649306;27;20043;-73
2023/05/04 01:07:38;;;;;;;1.10;0.70;;;;;;;5.57;72.66;101311.75;10637247;27;20043;-73
2023/05/04 01:12:50;;;;;;;2.63;0.80;;;;;;;5.45;73.29;101319.84;10620387;27;20038;-73
2023/05/04 01:17:52;;;;;;;2.53;1.10;;;;;;;5.14;73.94;101318.16;10622679;27;20516;-73
2023/05/04 01:22:55;;;;;;;1.00;0.90;;;;;;;5.08;74.74;101307.38;10658186;27;20031;-73
2023/05/04 01:28:03;;;;;;;1.00;0.63;;;;;;;5.28;74.07;101315.28;10623008;27;20043;-73
2023/05/04 01:33:06;;;;;;;1.95;1.00;;;;;;;5.13;74.91;101326.56;10619584;27;20570;-73
2023/05/04 01:38:12;;;;;;;5.57;0.75;;;;;;;5.37;74.89;101325.59;10623406;27;20523;-74
2023/05/04 01:43:15;;;;;;;1.35;0.77;;;;;;;5.20;75.04;101337.34;10605564;27;20062;-73
2023/05/04 01:48:17;;;;;;;2.00;0.70;;;;;;;5.09;75.67;101341.69;10657289;27;20058;-73
2023/05/04 01:53:19;;;;;;;3.17;0.80;;;;;;;5.04;76.74;101333.38;10656676;27;20046;-73
2023/05/04 01:58:22;;;;;;;0.88;0.77;;;;;;;4.87;77.37;101341.31;10638730;27;20054;-72
2023/05/04 02:03:25;;;;;;;1.75;1.00;;;;;;;4.84;77.93;101341.75;10656626;27;20039;-72
2023/05/04 02:08:27;;;;;;;2.03;0.93;;;;;;;5.00;77.01;101343.88;10621834;27;20031;-73
2023/05/04 02:13:30;;;;;;;3.40;0.95;;;;;;;5.22;76.89;101346.13;10634025;27;20046;-72
2023/05/04 02:18:32;;;;;;;2.03;1.83;;;;;;;5.11;76.74;101354.00;10655990;27;20420;-72
2023/05/04 02:23:34;;;;;;;2.40;1.10;;;;;;;5.40;76.64;101355.09;10655458;27;20039;-73
2023/05/04 02:28:37;;;;;;;1.20;1.10;;;;;;;5.41;76.07;101345.88;10653858;27;20059;-73
2023/05/04 02:33:39;;;;;;;1.50;1.15;;;;;;;5.39;75.96;101349.91;10619869;27;20420;-72
2023/05/04 02:38:41;;;;;;;1.88;0.70;;;;;;;5.32;76.04;101340.97;10654893;27;20046;-73
2023/05/04 02:43:43;;;;;;;1.83;1.00;;;;;;;5.23;76.17;101353.25;10618025;27;20413;-72
2023/05/04 02:48:45;;;;;;;1.10;0.75;;;;;;;4.91;76.66;101361.56;10617640;27;20382;-72
2023/05/04 02:53:48;;;;;;;0.90;0.90;;;;;;;5.17;76.39;101363.13;10639528;27;20443;-72
2023/05/04 02:58:55;;;;;;;1.33;0.88;;;;;;;5.09;76.25;101358.00;10617651;27;20040;-72
2023/05/04 03:03:57;;;;;;;1.77;1.07;;;;;;;5.24;76.26;101352.19;10616624;27;20047;-73
2023/05/04 03:08:59;;;;;;;0.52;0.52;;;;;;;5.30;75.35;101337.66;10654033;27;20042;-73
2023/05/04 03:14:02;;;;;;;1.27;0.77;;;;;;;5.23;74.79;101345.06;10654093;27;20054;-73
2023/05/04 03:19:04;;;;;;;1.63;0.70;;;;;;;5.35;74.21;101341.34;10618111;27;20069;-73
2023/05/04 03:24:07;;;;;;;0.68;0.63;;;;;;;5.41;73.39;101345.06;10652768;27;20062;-73
2023/05/04 03:29:09;;;;;;;0.68;0.60;;;;;;;5.33;72.20;101367.94;10652929;27;20074;-73
2023/05/04 03:34:13;;;;;;;0.52;0.52;;;;;;;5.25;72.23;101370.16;10632280;27;20035;-73
2023/05/04 03:39:16;;;;;;;1.27;0.50;;;;;;;5.00;73.62;101387.38;10626478;27;20031;-75
2023/05/04 03:44:20;;;;;;;0.52;0.52;;;;;;;4.40;75.22;101394.47;10634553;27;20047;-73
2023/05/04 03:49:47;;;;;;;0.85;0.80;;;;;;;3.68;78.67;101398.50;10585399;28;20669;-73
2023/05/04 03:54:49;;;;;;;0.70;0.70;;;;;;;3.28;80.73;101409.53;10630080;28;20035;-72
2023/05/04 03:59:51;;;;;;;0.77;0.70;;;;;;;2.92;82.56;101408.16;10632843;28;20050;-73
2023/05/04 04:04:54;;;;;;;2.67;0.85;;;;;;;2.88;83.67;101403.38;10627950;28;20039;-72
2023/05/04 04:09:57;;;;;;;0.88;0.77;;;;;;;3.12;83.88;101407.28;10619103;28;20421;-72
2023/05/04 04:15:00;;;;;;;0.90;0.90;;;;;;;3.67;82.17;101405.81;10613541;28;20039;-72
2023/05/04 04:20:03;;;;;;;1.13;0.82;;;;;;;3.66;81.58;101396.03;10618915;28;20045;-73
2023/05/04 04:25:06;;;;;;;2.05;1.10;;;;;;;3.90;80.58;101408.81;10635022;28;20051;-73
2023/05/04 04:30:09;;;;;;;1.55;0.88;;;;;;;4.36;79.39;101395.97;10641494;27;20495;-73
2023/05/04 04:35:11;;;;;;;1.70;1.38;;;;;;;4.78;78.29;101410.63;10607604;28;20414;-74
2023/05/04 04:40:13;;;;;;;1.17;0.90;;;;;;;4.91;77.27;101410.50;10632809;27;20044;-74
2023/05/04 04:45:15;;;;;;;1.42;1.13;;;;;;;4.99;76.62;101407.47;10634137;27;20051;-72
2023/05/04 04:50:18;;;;;;;1.42;1.00;;;;;;;4.50;77.31;101417.34;10642244;27;20405;-72
2023/05/04 04:55:20;;;;;;;1.00;0.90;;;;;;;4.19;78.19;101426.38;10626747;27;20035;-72
2023/05/04 05:00:22;;;;;;;1.10;1.00;;;;;;;3.96;78.72;101434.25;10608132;27;20040;-74
2023/05/04 05:05:26;;;;;;;0.95;0.82;;;;;;;3.86;79.20;101429.31;10641683;27;20505;-72
2023/05/04 05:10:28;;;;;;;0.90;0.75;;;;;;;3.80;79.70;101429.34;10641022;27;20046;-73
2023/05/04 05:15:30;;;;;;;1.27;0.90;;;;;;;3.88;79.81;101432.63;10634437;27;20039;-73
2023/05/04 05:20:33;;;;;;;0.70;0.70;;;;;;;4.35;79.22;101419.59;10637225;27;20031;-73
2023/05/04 05:25:36;;;;;;;1.42;0.80;;;;;;;5.02;75.71;101423.34;10626095;27;20051;-73
2023/05/04 05:30:39;;;;;;;1.05;0.95;;;;;;;4.80;74.74;101419.38;10618310;27;20476;-73
2023/05/04 05:35:42;;;;;;;1.10;1.00;;;;;;;4.69;75.25;101429.13;10594502;27;20039;-73
2023/05/04 05:40:44;;;;;;;1.10;1.00;;;;;;;5.52;72.85;101428.63;10621731;27;20066;-73
2023/05/04 05:45:47;;;;;;;1.45;1.15;;;;;;;5.19;71.74;101434.47;10656033;27;20043;-73
2023/05/04 05:50:49;;;;;;;1.92;1.30;;;;;;;4.38;75.09;101453.63;10656295;27;20042;-73
2023/05/04 05:55:52;;;;;;;1.35;1.25;;;;;;;4.19;76.66;101445.41;10638297;27;20031;-73
2023/05/04 06:00:54;;;;;;;1.35;1.25;;;;;;;3.78;76.73;101462.13;10638301;27;20043;-73
2023/05/04 06:05:56;;;;;;;2.47;1.20;;;;;;;3.63;77.48;101465.09;10637587;27;20051;-73
2023/05/04 06:10:59;;;;;;;1.02;0.90;;;;;;;3.65;77.40;101464.94;10638127;27;20498;-73
2023/05/04 06:16:02;;;;;;;1.70;1.00;;;;;;;3.98;77.19;101463.91;10627844;27;20050;-72
2023/05/04 06:21:04;;;;;;;3.03;0.82;;;;;;;4.22;74.76;101465.88;10620148;27;20417;-72
2023/05/04 06:26:07;;;;;;;0.98;0.82;;;;;;;3.92;74.87;101476.47;10654382;27;20416;-72
2023/05/04 06:31:09;;;;;;;0.70;0.70;;;;;;;3.91;75.22;101483.78;10620480;27;20501;-72
2023/05/04 06:36:11;;;;;;;0.98;0.93;;;;;;;3.96;75.58;101482.28;10636010;27;20042;-73
2023/05/04 06:41:14;;;;;;;1.30;1.13;;;;;;;3.98;75.76;101488.34;10631729;27;20642;-72
2023/05/04 06:46:16;;;;;;;1.90;1.25;;;;;;;4.09;75.98;101482.22;10618769;27;20039;-73
2023/05/04 06:51:19;;;;;;;1.60;1.17;;;;;;;4.29;75.01;101482.94;10592996;28;20051;-74
2023/05/04 06:56:22;;;;;;;0.98;0.82;;;;;;;4.62;74.30;101471.84;10611877;27;20036;-73
2023/05/04 07:01:25;;;;;;;0.80;0.80;;;;;;;4.83;72.51;101478.75;10653179;27;20066;-73
2023/05/04 07:06:28;;;;;;;1.20;1.10;;;;;;;4.77;71.91;101485.94;10635113;27;20405;-72
2023/05/04 07:11:30;;;;;;;2.08;0.80;;;;;;;4.68;72.13;101486.41;10631808;27;20039;-73
2023/05/04 07:16:34;;;;;;;3.35;1.40;;;;;;;4.60;72.50;101500.28;10570123;27;20036;-72
2023/05/04 07:21:40;;;;;;;1.70;1.20;;;;;;;4.32;72.68;101506.13;10586298;27;20039;-74
2023/05/04 07:26:42;;;;;;;1.05;0.90;;;;;;;4.24;72.32;101507.22;10592627;27;20133;-73
2023/05/04 07:31:45;;;;;;;2.08;0.82;;;;;;;4.56;71.42;101507.22;10610513;27;20430;-73
2023/05/04 07:36:48;;;;;;;1.20;1.08;;;;;;;5.01;68.27;101497.00;10632733;27;20043;-74
2023/05/04 07:41:53;;;;;;;1.00;1.00;;;;;;;5.21;64.55;101505.84;10608365;27;20062;-73
2023/05/04 07:46:57;;;;;;;1.02;0.85;;;;;;;5.39;63.79;101499.59;10578115;28;20566;-73
2023/05/04 07:51:59;;;;;;;4.38;1.00;;;;;;;6.40;60.99;101498.09;10550013;28;20040;-72
2023/05/04 07:57:02;;;;;;;0.93;0.93;;;;;;;6.98;58.42;101495.50;10597454;28;20537;-72
2023/05/04 08:02:04;;;;;;;1.02;0.90;;;;;;;8.73;53.64;101503.22;10595373;28;20398;-74
2023/05/04 08:07:07;;;;;;;1.33;0.80;;;;;;;8.53;50.85;101500.13;10587768;28;20040;-74
2023/05/04 08:12:11;;;;;;;0.85;0.82;;;;;;;8.35;51.02;101501.19;10577186;27;20413;-74
2023/05/04 08:17:13;;;;;;;1.45;1.10;;;;;;;7.79;52.46;101508.22;10601601;27;20050;-75
2023/05/04 08:22:15;;;;;;;3.00;1.55;;;;;;;7.43;53.82;101516.72;10611451;27;20047;-75
2023/05/04 08:27:18;;;;;;;3.33;1.33;;;;;;;8.65;51.87;101511.81;10630378;27;20051;-75
2023/05/04 08:32:20;;;;;;;1.10;1.00;;;;;;;7.64;51.94;101526.22;10642030;27;20050;-77
2023/05/04 08:37:22;;;;;;;2.97;1.10;;;;;;;6.32;54.19;101535.53;10614973;27;20031;-75
2023/05/04 08:42:29;;;;;;;1.00;0.82;;;;;;;5.58;55.28;101541.25;10646083;27;20394;-75
2023/05/04 08:47:32;;;;;;;2.10;0.75;;;;;;;5.59;55.96;101546.47;10660369;27;20043;-75
2023/05/04 08:52:36;;;;;;;0.93;0.80;;;;;;;5.75;56.29;101554.03;10625666;27;20051;-75
2023/05/04 08:57:42;;;;;;;1.42;0.77;;;;;;;6.08;54.42;101543.84;10597517;27;20043;-76
2023/05/04 09:02:44;;;;;;;1.85;0.90;;;;;;;6.46;51.27;101540.81;10620397;27;20035;-76
2023/05/04 09:07:49;;;;;;;0.93;0.90;;;;;;;6.56;51.05;101533.72;10597126;28;20043;-75
2023/05/04 09:12:53;;;;;;;1.00;0.75;;;;;;;6.54;50.52;101541.28;10615752;28;20035;-75
2023/05/04 09:18:06;;;;;;;0.73;0.73;;;;;;;6.41;51.44;101548.81;10615850;28;20406;-75
2023/05/04 09:23:08;;;;;;;1.20;0.73;;;;;;;6.37;52.87;101564.81;10651149;27;20520;-75
2023/05/04 09:28:11;;;;;;;1.05;0.90;;;;;;;5.78;53.64;101568.25;10637584;27;20509;-75
2023/05/04 09:33:14;;;;;;;1.20;0.70;;;;;;;5.64;54.23;101570.28;10597607;28;20438;-75
2023/05/04 09:38:30;;;;;;;2.10;0.85;;;;;;;5.61;53.05;101570.75;10584876;28;20040;-75
2023/05/04 09:43:42;;;;;;;2.17;1.20;;;;;;;6.11;52.60;101574.19;10614483;28;20440;-75
2023/05/04 09:48:52;;;;;;;2.08;1.00;;;;;;;6.05;51.88;101596.88;10618116;27;20059;-75
2023/05/04 09:53:57;;;;;;;0.82;0.80;;;;;;;5.64;54.14;101592.91;10596896;28;20051;-75
2023/05/04 09:58:59;;;;;;;1.73;0.90;;;;;;;5.40;53.47;101604.66;10596315;28;20039;-75
2023/05/04 10:04:02;;;;;;;0.80;0.80;;;;;;;5.61;51.47;101598.81;10599825;27;20043;-75
2023/05/04 10:09:05;;;;;;;1.73;0.63;;;;;;;5.59;51.12;101597.38;10595813;28;20039;-75
2023/05/04 10:14:07;;;;;;;2.15;0.93;;;;;;;5.88;50.78;101606.69;10596023;28;20042;-75
2023/05/04 10:19:39;;;;;;;0.95;0.80;;;;;;;5.77;52.13;101612.91;10598523;27;20039;-73
2023/05/04 10:24:47;;;;;;;2.40;0.80;;;;;;;5.76;52.06;101606.63;10639352;27;20051;-74
2023/05/04 10:29:50;;;;;;;1.55;0.90;;;;;;;5.62;50.46;101619.53;10635109;27;20031;-74
2023/05/04 10:35:03;;;;;;;1.13;0.88;;;;;;;5.29;50.26;101629.88;10650328;27;20527;-74
2023/05/04 10:40:09;;;;;;;0.90;0.77;;;;;;;5.22;48.24;101627.22;10633920;27;20042;-77
2023/05/04 10:45:12;;;;;;;1.70;1.02;;;;;;;5.62;47.81;101615.97;10633451;27;20043;-74
2023/05/04 10:50:14;;;;;;;0.70;0.70;;;;;;;5.87;45.66;101626.81;10653236;27;20035;-75
2023/05/04 10:55:19;;;;;;;1.58;0.95;;;;;;;5.83;47.12;101641.94;10644560;27;20043;-74
2023/05/04 11:00:23;;;;;;;1.33;0.98;;;;;;;5.65;48.20;101640.84;10634288;27;20039;-73
2023/05/04 11:05:25;;;;;;;2.65;1.10;;;;;;;5.85;46.77;101643.38;10627058;27;20043;-74
2023/05/04 11:10:27;;;;;;;2.03;1.20;;;;;;;5.92;45.68;101646.91;10616854;27;20042;-74
2023/05/04 11:15:30;;;;;;;2.30;1.30;;;;;;;5.80;45.48;101639.69;10609300;27;20046;-74
2023/05/04 11:20:33;;;;;;;1.25;0.98;;;;;;;5.71;45.12;101650.00;10636830;27;20043;-74
2023/05/04 11:25:36;;;;;;;1.90;1.05;;;;;;;5.77;43.88;101649.13;10638132;27;20046;-74
2023/05/04 11:30:40;;;;;;;4.13;1.15;;;;;;;5.79;44.65;101659.81;10627608;27;20031;-76
2023/05/04 11:35:47;;;;;;;1.05;0.80;;;;;;;5.73;43.38;101650.66;10598933;27;20031;-76
2023/05/04 11:40:50;;;;;;;1.67;0.70;;;;;;;5.66;43.70;101658.03;10644682;27;20043;-74
2023/05/04 11:45:54;;;;;;;1.50;0.95;;;;;;;5.71;42.73;101652.72;10638644;27;20564;-73
2023/05/04 11:50:59;;;;;;;1.25;0.82;;;;;;;5.89;43.31;101654.66;10644226;27;20039;-73
2023/05/04 11:56:02;;;;;;;1.27;0.80;;;;;;;5.95;42.07;101667.44;10625971;27;20126;-72
2023/05/04 12:01:04;;;;;;;0.73;0.73;;;;;;;5.76;41.64;101663.81;10609365;27;20069;-74
2023/05/04 12:06:32;;;;;;;1.33;1.00;;;;;;;5.84;41.74;101660.78;10664184;27;20504;-73
2023/05/04 12:11:34;;;;;;;4.05;0.80;;;;;;;5.81;38.81;101671.31;10647831;27;20039;-74
2023/05/04 12:16:37;;;;;;;1.05;0.98;;;;;;;5.72;39.27;101670.75;10617724;28;20050;-73
2023/05/04 12:21:57;;;;;;;2.05;0.95;;;;;;;5.77;40.40;101675.53;10639305;27;20051;-72
2023/05/04 12:27:00;;;;;;;1.85;0.70;;;;;;;5.68;39.47;101692.16;10628915;28;20043;-73
2023/05/04 12:32:02;;;;;;;0.60;0.60;;;;;;;5.51;39.61;101690.19;10605974;28;20059;-73
2023/05/04 12:37:05;;;;;;;1.38;1.00;;;;;;;5.48;39.68;101687.94;10577287;28;20035;-73
2023/05/04 12:42:07;;;;;;;1.08;0.90;;;;;;;5.38;39.75;101691.13;10600242;28;20051;-72
2023/05/04 12:47:09;;;;;;;2.72;1.00;;;;;;;5.42;39.53;101695.09;10581044;28;20069;-71
2023/05/04 12:52:11;;;;;;;2.42;1.05;;;;;;;5.81;39.44;101696.66;10585839;28;20046;-73
2023/05/04 12:57:14;;;;;;;2.53;0.63;;;;;;;5.88;41.64;101699.28;10584061;27;20043;-73
2023/05/04 13:02:16;;;;;;;3.25;0.77;;;;;;;5.86;42.56;101690.53;10601193;27;20563;-72
2023/05/04 13:07:18;;;;;;;1.60;1.23;;;;;;;5.75;42.87;101709.28;10581900;27;20051;-72
2023/05/04 13:12:20;;;;;;;1.10;0.82;;;;;;;5.81;41.23;101696.66;10613010;28;20038;-71
2023/05/04 13:17:23;;;;;;;0.75;0.63;;;;;;;5.81;43.00;101701.25;10620207;27;20497;-72
2023/05/04 13:22:27;;;;;;;0.80;0.63;;;;;;;5.75;43.30;101705.72;10596545;28;20047;-72
2023/05/04 13:27:29;;;;;;;2.70;0.95;;;;;;;5.53;43.82;101707.97;10598678;27;20058;-73
2023/05/04 13:32:31;;;;;;;0.73;0.60;;;;;;;5.62;44.18;101717.56;10657337;27;20416;-72
2023/05/04 13:37:34;;;;;;;3.25;0.75;;;;;;;5.77;43.81;101719.13;10638659;27;20039;-73
2023/05/04 13:42:36;;;;;;;1.77;0.60;;;;;;;5.35;43.63;101721.50;10656507;27;20054;-74
2023/05/04 13:47:39;;;;;;;3.20;0.73;;;;;;;5.11;44.17;101728.59;10636837;27;20050;-74
2023/05/04 13:52:41;;;;;;;0.93;0.93;;;;;;;5.23;45.40;101739.63;10656889;27;20413;-73
2023/05/04 13:58:08;;;;;;;1.90;0.73;;;;;;;5.19;45.75;101732.94;10643059;27;20043;-73
2023/05/04 14:03:11;;;;;;;2.25;0.73;;;;;;;5.48;45.66;101732.31;10644520;27;20050;-72
2023/05/04 14:08:13;;;;;;;1.17;0.60;;;;;;;5.12;45.59;101741.13;10649041;27;20409;-74
2023/05/04 14:13:15;;;;;;;3.78;0.65;;;;;;;4.92;46.14;101754.84;10652686;27;20031;-72
2023/05/04 14:18:17;;;;;;;4.65;1.08;;;;;;;4.61;47.32;101741.16;10602764;27;20501;-74
2023/05/04 14:23:20;;;;;;;1.75;0.90;;;;;;;4.47;48.55;101743.94;10647399;27;20031;-73
2023/05/04 14:28:22;;;;;;;1.17;1.08;;;;;;;4.46;48.92;101750.41;10613014;27;20058;-74
2023/05/04 14:33:25;;;;;;;1.25;0.70;;;;;;;4.49;49.90;101751.84;10625451;27;20091;-73
2023/05/04 14:38:27;;;;;;;1.15;0.73;;;;;;;4.61;48.66;101746.59;10619945;27;20532;-73
2023/05/04 14:43:30;;;;;;;1.95;0.93;;;;;;;4.52;48.82;101749.56;10632547;27;20039;-74
2023/05/04 14:48:32;;;;;;;1.95;0.73;;;;;;;4.88;47.71;101750.91;10608611;28;20048;-73
2023/05/04 14:53:36;;;;;;;1.05;0.68;;;;;;;4.73;46.97;101748.44;10646853;27;20054;-73
2023/05/04 14:58:38;;;;;;;2.40;0.90;;;;;;;4.41;46.32;101752.09;10632987;27;20043;-73
2023/05/04 15:03:40;;;;;;;1.33;0.93;;;;;;;4.22;46.75;101759.25;10642508;27;20039;-73
2023/05/04 15:08:43;;;;;;;1.40;0.77;;;;;;;4.11;48.47;101795.19;10612018;27;20056;-73
2023/05/04 15:13:45;;;;;;;1.42;0.60;;;;;;;3.08;59.52;101799.22;10620756;27;20032;-72
2023/05/04 15:18:47;;;;;;;0.93;0.73;;;;;;;2.77;59.94;101797.84;10580911;27;20039;-73
2023/05/04 15:23:49;;;;;;;0.98;0.70;;;;;;;2.88;60.26;101785.59;10654040;27;20042;-73
2023/05/04 15:28:52;;;;;;;1.02;0.80;;;;;;;3.07;60.82;101784.84;10588974;28;20043;-73
2023/05/04 15:33:54;;;;;;;1.42;0.70;;;;;;;3.31;59.83;101773.44;10571179;28;20054;-73
2023/05/04 15:38:56;;;;;;;1.50;0.80;;;;;;;3.45;59.10;101774.28;10586695;28;20852;-75
2023/05/04 15:43:58;;;;;;;1.30;1.17;;;;;;;3.55;58.49;101768.47;10608032;28;20135;-75
2023/05/04 15:49:01;;;;;;;8.90;1.05;;;;;;;3.90;57.33;101761.78;10582178;28;20135;-75
2023/05/04 15:54:03;;;;;;;2.40;0.80;;;;;;;4.05;57.39;101753.44;10588105;28;20036;-76
2023/05/04 15:59:06;;;;;;;1.25;0.90;;;;;;;4.01;56.56;101748.63;10605224;28;20044;-74
2023/05/04 16:04:08;;;;;;;2.20;1.00;;;;;;;4.37;55.48;101751.72;10609967;28;20035;-76
2023/05/04 16:09:10;;;;;;;2.05;0.80;;;;;;;4.07;53.86;101736.91;10606122;28;20562;-76
2023/05/04 16:14:13;;;;;;;0.88;0.73;;;;;;;4.00;51.97;101722.53;10610140;28;20043;-76
2023/05/04 16:19:15;;;;;;;2.38;1.50;;;;;;;4.14;50.64;101743.16;10557788;28;20122;-73
2023/05/04 16:24:17;;;;;;;0.90;0.90;;;;;;;3.89;50.54;101734.84;10583483;28;20040;-74
2023/05/04 16:29:19;;;;;;;1.48;1.05;;;;;;;3.93;51.79;101731.50;10592997;28;20059;-74
2023/05/04 16:34:22;;;;;;;2.42;0.90;;;;;;;4.03;51.67;101738.41;10609046;27;20039;-74
2023/05/04 16:39:33;;;;;;;1.00;0.90;;;;;;;4.09;52.84;101742.97;10600469;28;20051;-74
2023/05/04 16:44:35;;;;;;;2.83;1.40;;;;;;;3.83;53.72;101738.41;10577250;28;20035;-73
2023/05/04 16:49:37;;;;;;;1.63;1.02;;;;;;;3.74;53.90;101734.22;10575208;28;20040;-73
2023/05/04 16:54:40;;;;;;;1.40;1.00;;;;;;;3.85;54.34;101733.63;10571544;27;20058;-73
2023/05/04 16:59:42;;;;;;;1.30;0.80;;;;;;;3.83;54.62;101731.09;10577699;28;20047;-73
2023/05/04 17:04:44;;;;;;;2.97;0.90;;;;;;;3.72;55.43;101731.72;10575145;28;20059;-73
2023/05/04 17:09:46;;;;;;;2.08;0.90;;;;;;;3.89;55.36;101737.56;10587879;28;20139;-76
2023/05/04 17:14:49;;;;;;;0.93;0.68;;;;;;;3.77;55.20;101729.22;10595664;27;20038;-75
2023/05/04 17:19:51;;;;;;;0.80;0.73;;;;;;;3.67;56.06;101744.25;10612406;27;20045;-74
2023/05/04 17:24:53;;;;;;;2.28;0.80;;;;;;;3.62;55.64;101736.72;10598681;27;20040;-74
2023/05/04 17:29:55;;;;;;;0.90;0.80;;;;;;;3.42;55.64;101725.88;10691381;27;20058;-73
2023/05/04 17:34:58;;;;;;;1.38;0.77;;;;;;;3.49;55.88;101726.72;10638973;27;20043;-73
2023/05/04 17:40:00;;;;;;;0.70;0.70;;;;;;;3.42;55.94;101731.28;10641079;27;20039;-73
2023/05/04 17:45:02;;;;;;;2.17;1.00;;;;;;;3.20;57.37;101733.34;10648235;27;20046;-73
2023/05/04 17:50:05;;;;;;;1.27;1.00;;;;;;;3.21;58.05;101729.59;10625998;27;20042;-73
2023/05/04 17:55:33;;;;;;;3.03;1.00;;;;;;;3.20;58.93;101722.50;10634363;27;20063;-73
2023/05/04 18:00:35;;;;;;;1.63;0.83;;;;;;;3.39;59.09;101733.59;10635147;27;20038;-73
2023/05/04 18:05:40;;;;;;;2.63;0.85;;;;;;;3.24;59.07;101722.91;10647296;27;20070;-74
2023/05/04 18:10:42;;;;;;;1.23;1.02;;;;;;;3.06;59.38;101714.53;10647523;27;20401;-73
2023/05/04 18:15:44;;;;;;;1.40;0.90;;;;;;;3.17;59.31;101725.63;10655099;27;20035;-72
2023/05/04 18:20:47;;;;;;;1.92;0.88;;;;;;;3.17;59.19;101722.91;10619678;27;20040;-71
2023/05/04 18:25:49;;;;;;;1.77;0.82;;;;;;;3.33;58.72;101725.25;10620748;27;20052;-74
2023/05/04 18:30:54;;;;;;;2.88;0.85;;;;;;;3.39;58.50;101720.84;10641942;27;20035;-73
2023/05/04 18:35:57;;;;;;;1.45;1.05;;;;;;;3.27;59.12;101720.63;10642337;27;20367;-74
2023/05/04 18:40:59;;;;;;;1.42;0.90;;;;;;;3.29;59.45;101732.09;10646495;27;20042;-75
2023/05/04 18:46:05;;;;;;;2.05;1.10;;;;;;;3.41;59.75;101728.78;10634437;27;20492;-75
2023/05/04 18:51:08;;;;;;;1.77;1.00;;;;;;;3.51;59.90;101731.94;10641048;27;20031;-78
2023/05/04 18:56:10;;;;;;;2.13;1.10;;;;;;;3.30;60.55;101730.25;10611070;27;20433;-76
2023/05/04 19:01:12;;;;;;;2.50;1.08;;;;;;;3.28;60.94;101735.03;10621082;27;20035;-77
2023/05/04 19:06:15;;;;;;;1.10;1.00;;;;;;;3.29;60.95;101729.38;10641807;27;20031;-77
2023/05/04 19:11:17;;;;;;;1.65;1.00;;;;;;;3.30;60.92;101725.66;10585443;27;20046;-77
2023/05/04 19:16:19;;;;;;;1.73;1.23;;;;;;;3.15;60.73;101729.59;10641608;27;20031;-76
2023/05/04 19:21:22;;;;;;;1.67;1.10;;;;;;;2.88;61.94;101734.09;10612016;27;20030;-78
2023/05/04 19:26:24;;;;;;;2.15;1.10;;;;;;;2.83;62.01;101733.88;10618293;27;20050;-73
2023/05/04 19:31:26;;;;;;;3.03;1.50;;;;;;;3.00;60.74;101732.47;10588009;28;20118;-75
2023/05/04 19:36:29;;;;;;;2.70;1.33;;;;;;;2.89;60.86;101735.75;10570686;28;20053;-76
2023/05/04 19:41:31;;;;;;;5.13;1.40;;;;;;;2.86;61.10;101741.59;10605266;28;20039;-76
2023/05/04 19:46:33;;;;;;;1.88;1.38;;;;;;;2.68;61.56;101745.69;10590335;28;20043;-77
2023/05/04 19:51:35;;;;;;;2.58;1.58;;;;;;;2.62;61.27;101751.94;10585759;28;20032;-77
2023/05/04 19:56:38;;;;;;;3.47;1.48;;;;;;;2.40;62.14;101751.19;10569722;28;20122;-76
2023/05/04 20:01:40;;;;;;;4.25;1.45;;;;;;;2.55;62.27;101740.22;10606408;28;20063;-77
2023/05/04 20:06:42;;;;;;;3.65;1.55;;;;;;;2.68;62.19;101742.16;10605997;28;20054;-75
2023/05/04 20:11:45;;;;;;;3.97;1.55;;;;;;;2.47;62.69;101750.41;10595972;28;20513;-74
2023/05/04 20:16:48;;;;;;;1.75;1.25;;;;;;;2.51;62.93;101744.38;10593396;28;20035;-74
2023/05/04 20:21:50;;;;;;;2.80;1.20;;;;;;;2.39;63.44;101751.38;10580199;28;20552;-74
2023/05/04 20:26:52;;;;;;;2.28;1.10;;;;;;;2.23;64.71;101754.41;10593784;27;20048;-72
2023/05/04 20:31:55;;;;;;;1.08;1.00;;;;;;;2.21;64.72;101756.50;10640350;27;20132;-73
2023/05/04 20:36:57;;;;;;;1.67;1.10;;;;;;;2.17;65.25;101757.94;10612977;27;20504;-74
2023/05/04 20:41:59;;;;;;;4.18;1.40;;;;;;;2.02;66.18;101753.44;10631475;27;20467;-73
2023/05/04 20:47:01;;;;;;;1.25;1.08;;;;;;;1.84;67.22;101761.22;10634093;27;20043;-74
2023/05/04 20:52:04;;;;;;;1.10;0.90;;;;;;;1.68;67.24;101761.50;10652330;27;20039;-75
2023/05/04 20:57:06;;;;;;;1.73;1.20;;;;;;;1.66;67.85;101767.13;10644907;27;20389;-74
2023/05/04 21:02:08;;;;;;;3.20;1.60;;;;;;;1.59;67.55;101759.97;10648445;27;20046;-74
2023/05/04 21:07:10;;;;;;;2.35;1.55;;;;;;;1.52;69.62;101760.75;10613772;27;20042;-73
2023/05/04 21:12:13;;;;;;;5.35;1.25;;;;;;;1.77;69.12;101768.47;10633950;27;20489;-73
2023/05/04 21:17:15;;;;;;;1.92;1.45;;;;;;;1.81;67.99;101770.56;10655346;27;20036;-74
2023/05/04 21:22:17;;;;;;;4.20;2.03;;;;;;;1.71;69.00;101771.94;10634927;27;20043;-74
2023/05/04 21:27:20;;;;;;;3.72;2.22;;;;;;;1.57;69.89;101773.72;10634012;27;20056;-75
2023/05/04 21:32:22;;;;;;;6.65;2.80;;;;;;;1.30;70.06;101778.00;10590129;28;20828;-74
2023/05/04 21:37:24;;;;;;;8.05;2.97;;;;;;;1.20;70.67;101770.19;10603588;28;20046;-78
2023/05/04 21:42:26;;;;;;;5.95;3.17;;;;;;;1.14;70.76;101775.53;10594308;27;20035;-76
2023/05/04 21:47:29;;;;;;;5.07;3.08;;;;;;;0.74;71.46;101776.94;10604235;27;20047;-76
2023/05/04 21:52:31;;;;;;;4.93;2.75;;;;;;;0.67;72.26;101781.41;10611039;28;20498;-80
2023/05/04 21:57:33;;;;;;;6.43;2.92;;;;;;;0.81;72.38;101777.84;10578072;28;20036;-80
2023/05/04 22:02:36;;;;;;;5.57;2.63;;;;;;;0.69;72.39;101774.78;10613077;27;20360;-79
2023/05/04 22:07:38;;;;;;;5.85;2.92;;;;;;;0.66;72.92;101783.28;10590838;27;20043;-79
2023/05/04 22:12:40;;;;;;;8.93;3.10;;;;;;;0.50;73.35;101781.59;10591325;28;20035;-80
2023/05/04 22:17:42;;;;;;;6.28;2.80;;;;;;;0.32;74.13;101785.72;10571537;27;20055;-78
2023/05/04 22:22:45;;;;;;;4.32;2.50;;;;;;;0.31;74.85;101787.56;10575004;27;20039;-79
2023/05/04 22:27:47;;;;;;;4.85;2.45;;;;;;;0.36;74.88;101793.28;10614888;27;20049;-78
2023/05/04 22:32:50;;;;;;;2.30;1.45;;;;;;;0.21;75.57;101790.56;10614585;27;20054;-76
2023/05/04 22:37:53;;;;;;;5.05;1.92;;;;;;;0.18;75.71;101792.78;10656356;27;20035;-74
2023/05/04 22:42:55;;;;;;;2.55;1.60;;;;;;;0.15;75.84;101788.59;10634718;27;20043;-73
2023/05/04 22:47:57;;;;;;;3.15;1.70;;;;;;;0.15;76.36;101788.59;10645415;27;20040;-74
2023/05/04 22:53:00;;;;;;;2.40;1.67;;;;;;;0.30;76.05;101792.13;10636828;27;20035;-77
2023/05/04 22:58:02;;;;;;;3.10;1.40;;;;;;;0.13;75.81;101793.34;10666184;27;20051;-78
2023/05/04 23:03:05;;;;;;;2.65;1.60;;;;;;;0.11;75.98;101794.53;10632238;27;20050;-78
2023/05/04 23:08:07;;;;;;;2.92;1.52;;;;;;;0.23;76.12;101793.06;10644510;27;20046;-79
2023/05/04 23:13:09;;;;;;;2.28;1.48;;;;;;;0.20;75.84;101796.16;10630472;27;20054;-79
2023/05/04 23:18:11;;;;;;;3.72;1.73;;;;;;;0.24;76.05;101792.03;10655125;27;20046;-78
2023/05/04 23:23:14;;;;;;;4.35;2.03;;;;;;;0.35;75.49;101791.59;10650743;27;20042;-79
2023/05/04 23:28:16;;;;;;;3.80;1.75;;;;;;;0.38;75.19;101796.63;10652167;27;20055;-79